Terminal Aerodrome Forecast
Issued by NWS

Home | Current Version | Previous Version | Text Only | Print | Product List | Glossary Off
Versions: 1 2 3 4 5 6 7 8 9 10 11 12 13 14 15 16 17

000
FTUS43 KICT 242337
TAFSLN
TAF
KSLN 242337Z 2500/2524 01005KT P6SM SKC
     FM250200 10005KT P6SM SKC
     FM250500 14007KT P6SM BKN130
     FM251100 19009KT P6SM OVC100=

USA.gov is the U.S. government's official web portal to all federal, state and local government web resources and services.